Capitol Reef National Park, UT

11:57 PM MST on February 27, 2015 (GMT -0700)
RAWS LARB HOLLOW UT US | Change Station
CLOSE
Current Station
Personal Weather Station
Location: Teasdale, UT
Elevation: 8508 ft
Nearby Weather Stations
Active Advisory: Winter Weather Advisory Active Notice: Public Information Statement

Elev 8508 ft 38.12 °N, 111.32 °W | Updated 53 minutes ago

Overcast
Overcast
18 °F
Feels Like 18 °F
N
2
Wind Variable Wind from NW
Gusts 4.0 mph

Today
High -- | Low -- °F
--% Chance of Precip.
Yesterday
High -- | Low -- °F
Precip. -- in
7:01 AM 6:17 PM
Waxing Gibbous, 75% visible
Pressure 29.66 in
Visibility 0.2 miles
Clouds
Windchill 18 °F
Dew Point 16 °F
Humidity 93%
Rainfall 0.06 in
Snow Depth Not available.
UV Not available.
Pollen 3.00 out of 12
Air Quality Not available.
Flu Activity Not available.
METAR KBCE 280653Z AUTO 00000KT 1/4SM FZFG VV002 M07/M07 A2970 RMK AO2 SLP042 I1001 T10671072 400001144

More Conditions Fewer Conditions

Pressure 29.66 in
Visibility 0.2 miles
Clouds
Windchill 18 °F
Dew Point 16 °F
Humidity 93%
Rainfall 0.06 in
Snow Depth Not available.
UV Not available.
Pollen 3.00 out of 12
Air Quality Not available.
Flu Activity Not available.
METAR KBCE 280653Z AUTO 00000KT 1/4SM FZFG VV002 M07/M07 A2970 RMK AO2 SLP042 I1001 T10671072 400001144

More Conditions Fewer Conditions

10-Day Weather Forecast

Almanac

Astronomy

Feb. 27, 2015 Rise Set
Actual Time
Civil Twilight
Nautical Twilight
Astronomical Twilight
Moon
Length of Visible Light
Length of Day
Tomorrow will be .
, % of the Moon is Illuminated

Today's Extremes

State Highs State Lows

Community

WunderPhotos

Upload Photos

1,800,978 photos uploaded!

WunderBlogs® & News

Nearby

Air Quality

  Air Quality AQ Index Pollutant
Not available.

Snow Depth

Station Depth Elevation

Earthquake Activity

City Distance Mag. Time & Date
Minimum magnitude displayed is 2.5.

Coastal Water Temperatures

Place Temperature

Nearby Weather Stations

Winter Weather Advisory
Statement as of 7:47 PM MST on February 27, 2015

... Winter Weather Advisory remains in effect until 9 am MST
Sunday...

* affected area... the central and southern mountains of Utah.

* Snow accumulations... 10 to 20 inches.

* Timing... developing this evening... and continuing heavy at
times through Saturday before temporarily tapering off Sunday
morning. Another round of snow is possible Sunday into early
next week.

* Impacts... winter driving conditions can be expected on area
roadways including the higher passes of I-70 and I-15 and
Highway 89.

Precautionary/preparedness actions...

A Winter Weather Advisory for snow means that snow accumulations
will cause primarily travel difficulties. Be prepared for snow
covered roads. Use caution while driving.

For winter Road conditions from the Utah Department of
Transportation... visit
http://www.Udottraffic.Utah.Gov/roadweatherforecast.Aspx or dial
511.